sensor_id;sensor_type;location;lat;lon;timestamp;temperature;humidity
8953;DHT22;4511;50.890;8.054;2023-04-16T00:00:47;8.20;99.90
8953;DHT22;4511;50.890;8.054;2023-04-16T00:03:14;8.30;99.90
8953;DHT22;4511;50.890;8.054;2023-04-16T00:05:41;8.20;99.90
8953;DHT22;4511;50.890;8.054;2023-04-16T00:08:10;8.20;99.90
8953;DHT22;4511;50.890;8.054;2023-04-16T00:10:36;8.20;99.90
8953;DHT22;4511;50.890;8.054;2023-04-16T00:13:03;8.30;99.90
8953;DHT22;4511;50.890;8.054;2023-04-16T00:15:30;8.30;99.90
8953;DHT22;4511;50.890;8.054;2023-04-16T00:17:57;8.30;99.90
8953;DHT22;4511;50.890;8.054;2023-04-16T00:20:23;8.30;99.90
8953;DHT22;4511;50.890;8.054;2023-04-16T00:22:50;8.30;99.90
8953;DHT22;4511;50.890;8.054;2023-04-16T00:25:18;8.30;99.90
8953;DHT22;4511;50.890;8.054;2023-04-16T00:27:46;8.40;99.90
8953;DHT22;4511;50.890;8.054;2023-04-16T00:30:13;8.30;99.90
8953;DHT22;4511;50.890;8.054;2023-04-16T00:32:39;8.30;99.90
8953;DHT22;4511;50.890;8.054;2023-04-16T00:35:07;8.30;99.90
8953;DHT22;4511;50.890;8.054;2023-04-16T00:37:33;8.30;99.90
8953;DHT22;4511;50.890;8.054;2023-04-16T00:40:00;8.40;99.90
8953;DHT22;4511;50.890;8.054;2023-04-16T00:42:28;8.30;99.90
8953;DHT22;4511;50.890;8.054;2023-04-16T00:44:55;8.30;99.90
8953;DHT22;4511;50.890;8.054;2023-04-16T00:47:22;8.30;99.90
8953;DHT22;4511;50.890;8.054;2023-04-16T00:49:49;8.30;99.90
8953;DHT22;4511;50.890;8.054;2023-04-16T00:52:16;8.30;99.90
8953;DHT22;4511;50.890;8.054;2023-04-16T00:54:42;8.30;99.90
8953;DHT22;4511;50.890;8.054;2023-04-16T00:57:13;8.30;99.90
8953;DHT22;4511;50.890;8.054;2023-04-16T00:59:41;8.30;99.90
8953;DHT22;4511;50.890;8.054;2023-04-16T01:02:08;8.30;99.90
8953;DHT22;4511;50.890;8.054;2023-04-16T01:04:35;8.20;99.90
8953;DHT22;4511;50.890;8.054;2023-04-16T01:07:02;8.20;99.90
8953;DHT22;4511;50.890;8.054;2023-04-16T01:09:29;8.30;99.90
8953;DHT22;4511;50.890;8.054;2023-04-16T01:11:55;8.30;99.90
8953;DHT22;4511;50.890;8.054;2023-04-16T01:14:22;8.30;99.90
8953;DHT22;4511;50.890;8.054;2023-04-16T01:16:51;8.30;99.90
8953;DHT22;4511;50.890;8.054;2023-04-16T01:19:17;8.30;99.90
8953;DHT22;4511;50.890;8.054;2023-04-16T01:21:46;8.40;99.90
8953;DHT22;4511;50.890;8.054;2023-04-16T01:24:12;8.40;99.90
8953;DHT22;4511;50.890;8.054;2023-04-16T01:26:39;8.30;99.90
8953;DHT22;4511;50.890;8.054;2023-04-16T01:29:08;8.30;99.90
8953;DHT22;4511;50.890;8.054;2023-04-16T01:31:35;8.30;99.90
8953;DHT22;4511;50.890;8.054;2023-04-16T01:34:05;8.30;99.90
8953;DHT22;4511;50.890;8.054;2023-04-16T01:36:32;8.40;99.90
8953;DHT22;4511;50.890;8.054;2023-04-16T01:39:00;8.40;99.90
8953;DHT22;4511;50.890;8.054;2023-04-16T01:41:27;8.30;99.90
8953;DHT22;4511;50.890;8.054;2023-04-16T01:43:54;8.30;99.90
8953;DHT22;4511;50.890;8.054;2023-04-16T01:46:26;8.40;99.90
8953;DHT22;4511;50.890;8.054;2023-04-16T01:48:54;8.30;99.90
8953;DHT22;4511;50.890;8.054;2023-04-16T01:51:21;8.30;99.90
8953;DHT22;4511;50.890;8.054;2023-04-16T01:53:48;8.40;99.90
8953;DHT22;4511;50.890;8.054;2023-04-16T01:56:16;8.40;99.90
8953;DHT22;4511;50.890;8.054;2023-04-16T01:58:43;8.40;99.90
8953;DHT22;4511;50.890;8.054;2023-04-16T02:01:12;8.40;99.90
8953;DHT22;4511;50.890;8.054;2023-04-16T02:03:39;8.50;99.90
8953;DHT22;4511;50.890;8.054;2023-04-16T02:06:06;8.50;99.90
8953;DHT22;4511;50.890;8.054;2023-04-16T02:08:35;8.30;99.90
8953;DHT22;4511;50.890;8.054;2023-04-16T02:11:02;8.30;99.90
8953;DHT22;4511;50.890;8.054;2023-04-16T02:13:30;8.30;99.90
8953;DHT22;4511;50.890;8.054;2023-04-16T02:15:57;8.30;99.90
8953;DHT22;4511;50.890;8.054;2023-04-16T02:18:23;8.30;99.90
8953;DHT22;4511;50.890;8.054;2023-04-16T02:20:50;8.30;99.90
8953;DHT22;4511;50.890;8.054;2023-04-16T02:23:17;8.30;99.90
8953;DHT22;4511;50.890;8.054;2023-04-16T02:25:45;8.30;99.90
8953;DHT22;4511;50.890;8.054;2023-04-16T02:28:13;8.30;99.90
8953;DHT22;4511;50.890;8.054;2023-04-16T02:30:42;8.30;99.90
8953;DHT22;4511;50.890;8.054;2023-04-16T02:33:10;8.30;99.90
8953;DHT22;4511;50.890;8.054;2023-04-16T02:35:38;8.30;99.90
8953;DHT22;4511;50.890;8.054;2023-04-16T02:38:05;8.20;99.90
8953;DHT22;4511;50.890;8.054;2023-04-16T02:40:33;8.30;99.90
8953;DHT22;4511;50.890;8.054;2023-04-16T02:42:59;8.30;99.90
8953;DHT22;4511;50.890;8.054;2023-04-16T02:45:26;8.20;99.90
8953;DHT22;4511;50.890;8.054;2023-04-16T02:47:54;8.30;99.90
8953;DHT22;4511;50.890;8.054;2023-04-16T02:50:21;8.30;99.90
8953;DHT22;4511;50.890;8.054;2023-04-16T02:52:48;8.30;99.90
8953;DHT22;4511;50.890;8.054;2023-04-16T02:55:16;8.30;99.90
8953;DHT22;4511;50.890;8.054;2023-04-16T02:57:43;8.30;99.90
8953;DHT22;4511;50.890;8.054;2023-04-16T03:00:10;8.30;99.90
8953;DHT22;4511;50.890;8.054;2023-04-16T03:02:37;8.30;99.90
8953;DHT22;4511;50.890;8.054;2023-04-16T03:05:06;8.20;99.90
8953;DHT22;4511;50.890;8.054;2023-04-16T03:07:32;8.30;99.90
8953;DHT22;4511;50.890;8.054;2023-04-16T03:09:59;8.30;99.90
8953;DHT22;4511;50.890;8.054;2023-04-16T03:12:26;8.30;99.90
8953;DHT22;4511;50.890;8.054;2023-04-16T03:14:53;8.30;99.90
8953;DHT22;4511;50.890;8.054;2023-04-16T03:17:20;8.30;99.90
8953;DHT22;4511;50.890;8.054;2023-04-16T03:19:46;8.30;99.90
8953;DHT22;4511;50.890;8.054;2023-04-16T03:22:16;8.40;99.90
8953;DHT22;4511;50.890;8.054;2023-04-16T03:24:43;8.30;99.90
8953;DHT22;4511;50.890;8.054;2023-04-16T03:27:10;8.40;99.90
8953;DHT22;4511;50.890;8.054;2023-04-16T03:29:36;8.30;99.90
8953;DHT22;4511;50.890;8.054;2023-04-16T03:32:03;8.30;99.90
8953;DHT22;4511;50.890;8.054;2023-04-16T03:34:30;8.30;99.90
8953;DHT22;4511;50.890;8.054;2023-04-16T03:36:57;8.30;99.90
8953;DHT22;4511;50.890;8.054;2023-04-16T03:39:25;8.30;99.90
8953;DHT22;4511;50.890;8.054;2023-04-16T03:41:52;8.30;99.90
8953;DHT22;4511;50.890;8.054;2023-04-16T03:44:19;8.30;99.90
8953;DHT22;4511;50.890;8.054;2023-04-16T03:46:46;8.30;99.90
8953;DHT22;4511;50.890;8.054;2023-04-16T03:49:12;8.30;99.90
8953;DHT22;4511;50.890;8.054;2023-04-16T03:51:39;8.30;99.90
8953;DHT22;4511;50.890;8.054;2023-04-16T03:54:06;8.20;99.90
8953;DHT22;4511;50.890;8.054;2023-04-16T03:56:34;8.30;99.90
8953;DHT22;4511;50.890;8.054;2023-04-16T03:59:01;8.30;99.90
8953;DHT22;4511;50.890;8.054;2023-04-16T04:01:27;8.20;99.90
8953;DHT22;4511;50.890;8.054;2023-04-16T04:03:54;8.20;99.90
8953;DHT22;4511;50.890;8.054;2023-04-16T04:06:21;8.20;99.90
8953;DHT22;4511;50.890;8.054;2023-04-16T04:08:48;8.30;99.90
8953;DHT22;4511;50.890;8.054;2023-04-16T04:11:14;8.20;99.90
8953;DHT22;4511;50.890;8.054;2023-04-16T04:13:43;8.30;99.90
8953;DHT22;4511;50.890;8.054;2023-04-16T04:16:10;8.20;99.90
8953;DHT22;4511;50.890;8.054;2023-04-16T04:18:37;8.20;99.90
8953;DHT22;4511;50.890;8.054;2023-04-16T04:21:04;8.20;99.90
8953;DHT22;4511;50.890;8.054;2023-04-16T04:23:31;8.10;99.90
8953;DHT22;4511;50.890;8.054;2023-04-16T04:25:58;8.20;99.90
8953;DHT22;4511;50.890;8.054;2023-04-16T04:28:28;8.20;99.90
8953;DHT22;4511;50.890;8.054;2023-04-16T04:30:56;8.20;99.90
8953;DHT22;4511;50.890;8.054;2023-04-16T04:33:23;8.10;99.90
8953;DHT22;4511;50.890;8.054;2023-04-16T04:35:50;8.10;99.90
8953;DHT22;4511;50.890;8.054;2023-04-16T04:38:16;8.20;99.90
8953;DHT22;4511;50.890;8.054;2023-04-16T04:40:44;8.20;99.90
8953;DHT22;4511;50.890;8.054;2023-04-16T04:43:11;8.20;99.90
8953;DHT22;4511;50.890;8.054;2023-04-16T04:45:38;8.20;99.90
8953;DHT22;4511;50.890;8.054;2023-04-16T04:48:06;8.20;99.90
8953;DHT22;4511;50.890;8.054;2023-04-16T04:50:32;8.20;99.90
8953;DHT22;4511;50.890;8.054;2023-04-16T04:52:59;8.10;99.90
8953;DHT22;4511;50.890;8.054;2023-04-16T04:55:26;8.10;99.90
8953;DHT22;4511;50.890;8.054;2023-04-16T04:57:53;8.20;99.90
8953;DHT22;4511;50.890;8.054;2023-04-16T05:00:19;8.20;99.90
8953;DHT22;4511;50.890;8.054;2023-04-16T05:02:46;8.20;99.90
8953;DHT22;4511;50.890;8.054;2023-04-16T05:05:15;8.20;99.90
8953;DHT22;4511;50.890;8.054;2023-04-16T05:07:43;8.20;99.90
8953;DHT22;4511;50.890;8.054;2023-04-16T05:10:10;8.20;99.90
8953;DHT22;4511;50.890;8.054;2023-04-16T05:12:36;8.20;99.90
8953;DHT22;4511;50.890;8.054;2023-04-16T05:15:05;8.20;99.90
8953;DHT22;4511;50.890;8.054;2023-04-16T05:17:32;8.30;99.90
8953;DHT22;4511;50.890;8.054;2023-04-16T05:19:59;8.30;99.90
8953;DHT22;4511;50.890;8.054;2023-04-16T05:22:27;8.20;99.90
8953;DHT22;4511;50.890;8.054;2023-04-16T05:24:54;8.20;99.90
8953;DHT22;4511;50.890;8.054;2023-04-16T05:27:20;8.20;99.90
8953;DHT22;4511;50.890;8.054;2023-04-16T05:29:47;8.30;99.90
8953;DHT22;4511;50.890;8.054;2023-04-16T05:32:14;8.20;99.90
8953;DHT22;4511;50.890;8.054;2023-04-16T05:34:41;8.30;99.90
8953;DHT22;4511;50.890;8.054;2023-04-16T05:37:07;8.20;99.90
8953;DHT22;4511;50.890;8.054;2023-04-16T05:39:35;8.20;99.90
8953;DHT22;4511;50.890;8.054;2023-04-16T05:42:02;8.20;99.90
8953;DHT22;4511;50.890;8.054;2023-04-16T05:44:29;8.20;99.90
8953;DHT22;4511;50.890;8.054;2023-04-16T05:46:56;8.20;99.90
8953;DHT22;4511;50.890;8.054;2023-04-16T05:49:22;8.20;99.90
8953;DHT22;4511;50.890;8.054;2023-04-16T05:51:49;8.10;99.90
8953;DHT22;4511;50.890;8.054;2023-04-16T05:54:16;8.20;99.90
8953;DHT22;4511;50.890;8.054;2023-04-16T05:56:44;8.20;99.90
8953;DHT22;4511;50.890;8.054;2023-04-16T05:59:11;8.20;99.90
8953;DHT22;4511;50.890;8.054;2023-04-16T06:01:38;8.20;99.90
8953;DHT22;4511;50.890;8.054;2023-04-16T06:04:04;8.20;99.90
8953;DHT22;4511;50.890;8.054;2023-04-16T06:06:31;8.20;99.90
8953;DHT22;4511;50.890;8.054;2023-04-16T06:08:58;8.20;99.90
8953;DHT22;4511;50.890;8.054;2023-04-16T06:11:25;8.20;99.90
8953;DHT22;4511;50.890;8.054;2023-04-16T06:13:54;8.30;99.90
8953;DHT22;4511;50.890;8.054;2023-04-16T06:16:21;8.20;99.90
8953;DHT22;4511;50.890;8.054;2023-04-16T06:18:47;8.30;99.90
8953;DHT22;4511;50.890;8.054;2023-04-16T06:21:14;8.30;99.90
8953;DHT22;4511;50.890;8.054;2023-04-16T06:23:41;8.30;99.90
8953;DHT22;4511;50.890;8.054;2023-04-16T06:26:08;8.30;99.90
8953;DHT22;4511;50.890;8.054;2023-04-16T06:28:34;8.30;99.90
8953;DHT22;4511;50.890;8.054;2023-04-16T06:31:03;8.30;99.90
8953;DHT22;4511;50.890;8.054;2023-04-16T06:33:30;8.30;99.90
8953;DHT22;4511;50.890;8.054;2023-04-16T06:35:56;8.40;99.90
8953;DHT22;4511;50.890;8.054;2023-04-16T06:38:25;8.30;99.90
8953;DHT22;4511;50.890;8.054;2023-04-16T06:40:52;8.40;99.90
8953;DHT22;4511;50.890;8.054;2023-04-16T06:43:19;8.40;99.90
8953;DHT22;4511;50.890;8.054;2023-04-16T06:45:46;8.40;99.90
8953;DHT22;4511;50.890;8.054;2023-04-16T06:48:14;8.40;99.90
8953;DHT22;4511;50.890;8.054;2023-04-16T06:50:41;8.30;99.90
8953;DHT22;4511;50.890;8.054;2023-04-16T06:53:07;8.30;99.90
8953;DHT22;4511;50.890;8.054;2023-04-16T06:55:34;8.30;99.90
8953;DHT22;4511;50.890;8.054;2023-04-16T06:58:01;8.30;99.90
8953;DHT22;4511;50.890;8.054;2023-04-16T07:00:28;8.30;99.90
8953;DHT22;4511;50.890;8.054;2023-04-16T07:02:55;8.30;99.90
8953;DHT22;4511;50.890;8.054;2023-04-16T07:05:23;8.40;99.90
8953;DHT22;4511;50.890;8.054;2023-04-16T07:07:49;8.40;99.90
8953;DHT22;4511;50.890;8.054;2023-04-16T07:10:16;8.40;99.90
8953;DHT22;4511;50.890;8.054;2023-04-16T07:12:43;8.40;99.90
8953;DHT22;4511;50.890;8.054;2023-04-16T07:15:10;8.40;99.90
8953;DHT22;4511;50.890;8.054;2023-04-16T07:17:37;8.40;99.90
8953;DHT22;4511;50.890;8.054;2023-04-16T07:20:05;8.50;99.90
8953;DHT22;4511;50.890;8.054;2023-04-16T07:22:33;8.50;99.90
8953;DHT22;4511;50.890;8.054;2023-04-16T07:25:00;8.40;99.90
8953;DHT22;4511;50.890;8.054;2023-04-16T07:27:27;8.50;99.90
8953;DHT22;4511;50.890;8.054;2023-04-16T07:29:53;8.60;99.90
8953;DHT22;4511;50.890;8.054;2023-04-16T07:32:20;8.70;99.90
8953;DHT22;4511;50.890;8.054;2023-04-16T07:34:47;8.70;99.90
8953;DHT22;4511;50.890;8.054;2023-04-16T07:37:14;8.70;99.90
8953;DHT22;4511;50.890;8.054;2023-04-16T07:39:42;8.50;99.90
8953;DHT22;4511;50.890;8.054;2023-04-16T07:42:09;8.60;99.90
8953;DHT22;4511;50.890;8.054;2023-04-16T07:44:37;8.50;99.90
8953;DHT22;4511;50.890;8.054;2023-04-16T07:47:03;8.60;99.90
8953;DHT22;4511;50.890;8.054;2023-04-16T07:49:30;8.60;99.90
8953;DHT22;4511;50.890;8.054;2023-04-16T07:51:57;8.60;99.90
8953;DHT22;4511;50.890;8.054;2023-04-16T07:54:24;8.60;99.90
8953;DHT22;4511;50.890;8.054;2023-04-16T07:56:52;8.60;99.90
8953;DHT22;4511;50.890;8.054;2023-04-16T07:59:19;8.60;99.90
8953;DHT22;4511;50.890;8.054;2023-04-16T08:01:46;8.60;99.90
8953;DHT22;4511;50.890;8.054;2023-04-16T08:04:14;8.60;99.90
8953;DHT22;4511;50.890;8.054;2023-04-16T08:06:41;8.60;99.90
8953;DHT22;4511;50.890;8.054;2023-04-16T08:09:08;8.70;99.90
8953;DHT22;4511;50.890;8.054;2023-04-16T08:11:35;8.70;99.90
8953;DHT22;4511;50.890;8.054;2023-04-16T08:14:03;8.80;99.90
8953;DHT22;4511;50.890;8.054;2023-04-16T08:16:29;8.90;99.90
8953;DHT22;4511;50.890;8.054;2023-04-16T08:18:56;8.90;99.90
8953;DHT22;4511;50.890;8.054;2023-04-16T08:21:25;8.90;99.90
8953;DHT22;4511;50.890;8.054;2023-04-16T08:23:52;8.90;99.90
8953;DHT22;4511;50.890;8.054;2023-04-16T08:26:20;8.90;99.90
8953;DHT22;4511;50.890;8.054;2023-04-16T08:28:47;8.90;99.90
8953;DHT22;4511;50.890;8.054;2023-04-16T08:31:15;8.90;99.90
8953;DHT22;4511;50.890;8.054;2023-04-16T08:33:42;8.90;99.90
8953;DHT22;4511;50.890;8.054;2023-04-16T08:36:10;8.90;99.90
8953;DHT22;4511;50.890;8.054;2023-04-16T08:38:37;8.90;99.90
8953;DHT22;4511;50.890;8.054;2023-04-16T08:41:05;8.90;99.90
8953;DHT22;4511;50.890;8.054;2023-04-16T08:43:37;8.90;99.90
8953;DHT22;4511;50.890;8.054;2023-04-16T08:46:04;8.90;99.90
8953;DHT22;4511;50.890;8.054;2023-04-16T08:48:33;8.90;99.90
8953;DHT22;4511;50.890;8.054;2023-04-16T08:51:01;9.00;99.90
8953;DHT22;4511;50.890;8.054;2023-04-16T08:53:34;9.00;99.90
8953;DHT22;4511;50.890;8.054;2023-04-16T08:56:03;9.10;99.90
8953;DHT22;4511;50.890;8.054;2023-04-16T08:58:31;9.10;99.90
8953;DHT22;4511;50.890;8.054;2023-04-16T09:01:01;9.10;99.90
8953;DHT22;4511;50.890;8.054;2023-04-16T09:03:30;9.10;99.90
8953;DHT22;4511;50.890;8.054;2023-04-16T09:05:59;9.20;99.90
8953;DHT22;4511;50.890;8.054;2023-04-16T09:08:28;9.10;99.90
8953;DHT22;4511;50.890;8.054;2023-04-16T09:10:55;9.10;99.90
8953;DHT22;4511;50.890;8.054;2023-04-16T09:13:22;9.10;99.90
8953;DHT22;4511;50.890;8.054;2023-04-16T09:15:51;9.10;99.90
8953;DHT22;4511;50.890;8.054;2023-04-16T09:18:18;9.10;99.90
8953;DHT22;4511;50.890;8.054;2023-04-16T09:20:46;9.20;99.90
8953;DHT22;4511;50.890;8.054;2023-04-16T09:23:15;9.30;99.90
8953;DHT22;4511;50.890;8.054;2023-04-16T09:25:42;9.20;99.90
8953;DHT22;4511;50.890;8.054;2023-04-16T09:28:09;9.30;99.90
8953;DHT22;4511;50.890;8.054;2023-04-16T09:30:36;9.30;99.90
8953;DHT22;4511;50.890;8.054;2023-04-16T09:33:14;9.30;99.90
8953;DHT22;4511;50.890;8.054;2023-04-16T09:35:45;9.20;99.90
8953;DHT22;4511;50.890;8.054;2023-04-16T09:38:12;9.20;99.90
8953;DHT22;4511;50.890;8.054;2023-04-16T09:40:41;9.20;99.90
8953;DHT22;4511;50.890;8.054;2023-04-16T09:43:12;9.30;99.90
8953;DHT22;4511;50.890;8.054;2023-04-16T09:45:49;9.30;99.90
8953;DHT22;4511;50.890;8.054;2023-04-16T09:48:27;9.30;99.90
8953;DHT22;4511;50.890;8.054;2023-04-16T09:50:54;9.30;99.90
8953;DHT22;4511;50.890;8.054;2023-04-16T09:53:23;9.20;99.90
8953;DHT22;4511;50.890;8.054;2023-04-16T09:55:51;9.30;99.90
8953;DHT22;4511;50.890;8.054;2023-04-16T09:58:18;9.30;99.90
8953;DHT22;4511;50.890;8.054;2023-04-16T10:00:45;9.30;99.90
8953;DHT22;4511;50.890;8.054;2023-04-16T10:03:12;9.30;99.90
8953;DHT22;4511;50.890;8.054;2023-04-16T10:05:38;9.50;99.90
8953;DHT22;4511;50.890;8.054;2023-04-16T10:08:11;9.70;99.90
8953;DHT22;4511;50.890;8.054;2023-04-16T10:10:38;9.60;99.90
8953;DHT22;4511;50.890;8.054;2023-04-16T10:13:07;9.50;99.90
8953;DHT22;4511;50.890;8.054;2023-04-16T10:15:34;9.50;99.90
8953;DHT22;4511;50.890;8.054;2023-04-16T10:18:01;9.50;99.90
8953;DHT22;4511;50.890;8.054;2023-04-16T10:20:29;9.50;99.90
8953;DHT22;4511;50.890;8.054;2023-04-16T10:22:56;9.50;99.90
8953;DHT22;4511;50.890;8.054;2023-04-16T10:25:23;9.50;99.90
8953;DHT22;4511;50.890;8.054;2023-04-16T10:27:50;9.50;99.90
8953;DHT22;4511;50.890;8.054;2023-04-16T10:30:19;9.50;99.90
8953;DHT22;4511;50.890;8.054;2023-04-16T10:32:47;9.50;99.90
8953;DHT22;4511;50.890;8.054;2023-04-16T10:35:14;9.40;99.90
8953;DHT22;4511;50.890;8.054;2023-04-16T10:37:44;9.40;99.90
8953;DHT22;4511;50.890;8.054;2023-04-16T10:40:22;9.40;99.90
8953;DHT22;4511;50.890;8.054;2023-04-16T10:42:56;9.40;99.90
8953;DHT22;4511;50.890;8.054;2023-04-16T10:45:30;9.40;99.90
8953;DHT22;4511;50.890;8.054;2023-04-16T10:47:57;9.40;99.90
8953;DHT22;4511;50.890;8.054;2023-04-16T10:50:33;9.40;99.90
8953;DHT22;4511;50.890;8.054;2023-04-16T10:53:21;9.40;99.90
8953;DHT22;4511;50.890;8.054;2023-04-16T10:56:09;9.50;99.90
8953;DHT22;4511;50.890;8.054;2023-04-16T10:58:37;9.50;99.90
8953;DHT22;4511;50.890;8.054;2023-04-16T11:01:10;9.50;99.90
8953;DHT22;4511;50.890;8.054;2023-04-16T11:03:40;9.60;99.90
8953;DHT22;4511;50.890;8.054;2023-04-16T11:06:12;9.60;99.90
8953;DHT22;4511;50.890;8.054;2023-04-16T11:08:39;9.70;99.90
8953;DHT22;4511;50.890;8.054;2023-04-16T11:11:08;9.80;99.90
8953;DHT22;4511;50.890;8.054;2023-04-16T11:13:35;9.90;99.90
8953;DHT22;4511;50.890;8.054;2023-04-16T11:16:03;10.10;99.90
8953;DHT22;4511;50.890;8.054;2023-04-16T11:18:31;10.20;99.90
8953;DHT22;4511;50.890;8.054;2023-04-16T11:20:58;10.30;99.90
8953;DHT22;4511;50.890;8.054;2023-04-16T11:23:25;10.40;99.90
8953;DHT22;4511;50.890;8.054;2023-04-16T11:25:52;10.30;99.90
8953;DHT22;4511;50.890;8.054;2023-04-16T11:28:31;10.30;99.90
8953;DHT22;4511;50.890;8.054;2023-04-16T11:30:58;10.30;99.90
8953;DHT22;4511;50.890;8.054;2023-04-16T11:33:25;10.40;99.90
8953;DHT22;4511;50.890;8.054;2023-04-16T11:35:56;10.50;99.90
8953;DHT22;4511;50.890;8.054;2023-04-16T11:38:32;10.60;99.90
8953;DHT22;4511;50.890;8.054;2023-04-16T11:41:00;10.60;99.90
8953;DHT22;4511;50.890;8.054;2023-04-16T11:43:27;11.00;99.90
8953;DHT22;4511;50.890;8.054;2023-04-16T11:45:58;11.30;99.90
8953;DHT22;4511;50.890;8.054;2023-04-16T11:48:25;11.60;99.90
8953;DHT22;4511;50.890;8.054;2023-04-16T11:51:12;11.70;99.90
8953;DHT22;4511;50.890;8.054;2023-04-16T11:53:45;12.00;99.90
8953;DHT22;4511;50.890;8.054;2023-04-16T11:56:12;12.10;99.90
8953;DHT22;4511;50.890;8.054;2023-04-16T11:58:39;12.00;99.90
8953;DHT22;4511;50.890;8.054;2023-04-16T12:01:07;12.00;99.90
8953;DHT22;4511;50.890;8.054;2023-04-16T12:03:39;11.90;99.90
8953;DHT22;4511;50.890;8.054;2023-04-16T12:06:11;11.90;99.90
8953;DHT22;4511;50.890;8.054;2023-04-16T12:08:38;11.80;99.90
8953;DHT22;4511;50.890;8.054;2023-04-16T12:11:05;11.70;99.90
8953;DHT22;4511;50.890;8.054;2023-04-16T12:13:32;11.60;99.90
8953;DHT22;4511;50.890;8.054;2023-04-16T12:16:15;11.60;99.90
8953;DHT22;4511;50.890;8.054;2023-04-16T12:18:58;11.60;99.90
8953;DHT22;4511;50.890;8.054;2023-04-16T12:21:35;11.60;99.90
8953;DHT22;4511;50.890;8.054;2023-04-16T12:24:02;11.60;99.90
8953;DHT22;4511;50.890;8.054;2023-04-16T12:26:36;11.50;99.90
8953;DHT22;4511;50.890;8.054;2023-04-16T12:29:14;11.50;99.90
8953;DHT22;4511;50.890;8.054;2023-04-16T12:31:41;11.40;99.90
8953;DHT22;4511;50.890;8.054;2023-04-16T12:34:07;11.40;99.90
8953;DHT22;4511;50.890;8.054;2023-04-16T12:36:37;11.40;99.90
8953;DHT22;4511;50.890;8.054;2023-04-16T12:39:04;11.40;99.90
8953;DHT22;4511;50.890;8.054;2023-04-16T12:41:33;11.40;99.90
8953;DHT22;4511;50.890;8.054;2023-04-16T12:44:04;11.50;99.90
8953;DHT22;4511;50.890;8.054;2023-04-16T12:46:34;11.60;99.90
8953;DHT22;4511;50.890;8.054;2023-04-16T12:49:00;11.70;99.90
8953;DHT22;4511;50.890;8.054;2023-04-16T12:51:27;11.90;99.90
8953;DHT22;4511;50.890;8.054;2023-04-16T12:53:55;11.90;99.90
8953;DHT22;4511;50.890;8.054;2023-04-16T12:56:22;11.90;99.90
8953;DHT22;4511;50.890;8.054;2023-04-16T12:58:49;11.80;99.90
8953;DHT22;4511;50.890;8.054;2023-04-16T13:01:17;11.80;99.90
8953;DHT22;4511;50.890;8.054;2023-04-16T13:03:44;11.80;99.90
8953;DHT22;4511;50.890;8.054;2023-04-16T13:06:11;11.80;99.90
8953;DHT22;4511;50.890;8.054;2023-04-16T13:08:38;12.00;99.90
8953;DHT22;4511;50.890;8.054;2023-04-16T13:11:07;11.80;99.90
8953;DHT22;4511;50.890;8.054;2023-04-16T13:13:34;11.90;99.90
8953;DHT22;4511;50.890;8.054;2023-04-16T13:16:00;11.70;99.90
8953;DHT22;4511;50.890;8.054;2023-04-16T13:18:30;11.70;99.90
8953;DHT22;4511;50.890;8.054;2023-04-16T13:20:57;11.60;99.90
8953;DHT22;4511;50.890;8.054;2023-04-16T13:23:24;11.50;99.90
8953;DHT22;4511;50.890;8.054;2023-04-16T13:25:51;11.30;99.90
8953;DHT22;4511;50.890;8.054;2023-04-16T13:28:19;11.30;99.90
8953;DHT22;4511;50.890;8.054;2023-04-16T13:30:46;11.20;99.90
8953;DHT22;4511;50.890;8.054;2023-04-16T13:33:13;11.20;99.90
8953;DHT22;4511;50.890;8.054;2023-04-16T13:35:41;11.30;99.90
8953;DHT22;4511;50.890;8.054;2023-04-16T13:38:08;11.20;99.90
8953;DHT22;4511;50.890;8.054;2023-04-16T13:40:35;11.20;99.90
8953;DHT22;4511;50.890;8.054;2023-04-16T13:43:01;11.20;99.90
8953;DHT22;4511;50.890;8.054;2023-04-16T13:45:29;11.10;99.90
8953;DHT22;4511;50.890;8.054;2023-04-16T13:47:56;11.00;99.90
8953;DHT22;4511;50.890;8.054;2023-04-16T13:50:23;11.00;99.90
8953;DHT22;4511;50.890;8.054;2023-04-16T13:52:50;10.90;99.90
8953;DHT22;4511;50.890;8.054;2023-04-16T13:55:17;10.90;99.90
8953;DHT22;4511;50.890;8.054;2023-04-16T13:57:44;10.90;99.90
8953;DHT22;4511;50.890;8.054;2023-04-16T14:00:12;10.90;99.90
8953;DHT22;4511;50.890;8.054;2023-04-16T14:02:41;10.90;99.90
8953;DHT22;4511;50.890;8.054;2023-04-16T14:05:10;10.90;99.90
8953;DHT22;4511;50.890;8.054;2023-04-16T14:07:38;10.90;99.90
8953;DHT22;4511;50.890;8.054;2023-04-16T14:10:06;10.80;99.90
8953;DHT22;4511;50.890;8.054;2023-04-16T14:12:33;10.80;99.90
8953;DHT22;4511;50.890;8.054;2023-04-16T14:15:01;10.70;99.90
8953;DHT22;4511;50.890;8.054;2023-04-16T14:17:28;10.70;99.90
8953;DHT22;4511;50.890;8.054;2023-04-16T14:19:57;10.70;99.90
8953;DHT22;4511;50.890;8.054;2023-04-16T14:22:23;10.60;99.90
8953;DHT22;4511;50.890;8.054;2023-04-16T14:24:50;10.70;99.90
8953;DHT22;4511;50.890;8.054;2023-04-16T14:27:17;10.60;99.90
8953;DHT22;4511;50.890;8.054;2023-04-16T14:29:44;10.70;99.90
8953;DHT22;4511;50.890;8.054;2023-04-16T14:32:11;10.70;99.90
8953;DHT22;4511;50.890;8.054;2023-04-16T14:34:38;10.80;99.90
8953;DHT22;4511;50.890;8.054;2023-04-16T14:37:07;10.80;99.90
8953;DHT22;4511;50.890;8.054;2023-04-16T14:39:33;10.80;99.90
8953;DHT22;4511;50.890;8.054;2023-04-16T14:42:01;10.80;99.90
8953;DHT22;4511;50.890;8.054;2023-04-16T14:44:27;10.80;99.90
8953;DHT22;4511;50.890;8.054;2023-04-16T14:46:54;10.80;99.90
8953;DHT22;4511;50.890;8.054;2023-04-16T14:49:21;10.70;99.90
8953;DHT22;4511;50.890;8.054;2023-04-16T14:51:48;10.80;99.90
8953;DHT22;4511;50.890;8.054;2023-04-16T14:54:18;10.90;99.90
8953;DHT22;4511;50.890;8.054;2023-04-16T14:56:48;10.90;99.90
8953;DHT22;4511;50.890;8.054;2023-04-16T14:59:15;10.90;99.90
8953;DHT22;4511;50.890;8.054;2023-04-16T15:01:42;10.90;99.90
8953;DHT22;4511;50.890;8.054;2023-04-16T15:04:09;10.90;99.90
8953;DHT22;4511;50.890;8.054;2023-04-16T15:06:36;10.90;99.90
8953;DHT22;4511;50.890;8.054;2023-04-16T15:09:03;10.90;99.90
8953;DHT22;4511;50.890;8.054;2023-04-16T15:11:31;10.90;99.90
8953;DHT22;4511;50.890;8.054;2023-04-16T15:13:58;10.80;99.90
8953;DHT22;4511;50.890;8.054;2023-04-16T15:16:24;10.90;99.90
8953;DHT22;4511;50.890;8.054;2023-04-16T15:18:51;10.80;99.90
8953;DHT22;4511;50.890;8.054;2023-04-16T15:21:18;10.70;99.90
8953;DHT22;4511;50.890;8.054;2023-04-16T15:23:46;10.70;99.90
8953;DHT22;4511;50.890;8.054;2023-04-16T15:26:13;10.70;99.90
8953;DHT22;4511;50.890;8.054;2023-04-16T15:28:41;10.60;99.90
8953;DHT22;4511;50.890;8.054;2023-04-16T15:31:07;10.70;99.90
8953;DHT22;4511;50.890;8.054;2023-04-16T15:33:34;10.70;99.90
8953;DHT22;4511;50.890;8.054;2023-04-16T15:36:01;10.70;99.90
8953;DHT22;4511;50.890;8.054;2023-04-16T15:38:28;10.70;99.90
8953;DHT22;4511;50.890;8.054;2023-04-16T15:40:57;10.60;99.90
8953;DHT22;4511;50.890;8.054;2023-04-16T15:43:25;10.60;99.90
8953;DHT22;4511;50.890;8.054;2023-04-16T15:45:54;10.60;99.90
8953;DHT22;4511;50.890;8.054;2023-04-16T15:48:21;10.50;99.90
8953;DHT22;4511;50.890;8.054;2023-04-16T15:50:48;10.50;99.90
8953;DHT22;4511;50.890;8.054;2023-04-16T15:53:15;10.50;99.90
8953;DHT22;4511;50.890;8.054;2023-04-16T15:55:42;10.50;99.90
8953;DHT22;4511;50.890;8.054;2023-04-16T15:58:09;10.50;99.90
8953;DHT22;4511;50.890;8.054;2023-04-16T16:00:35;10.50;99.90
8953;DHT22;4511;50.890;8.054;2023-04-16T16:03:03;10.40;99.90
8953;DHT22;4511;50.890;8.054;2023-04-16T16:05:31;10.50;99.90
8953;DHT22;4511;50.890;8.054;2023-04-16T16:07:57;10.40;99.90
8953;DHT22;4511;50.890;8.054;2023-04-16T16:10:26;10.40;99.90
8953;DHT22;4511;50.890;8.054;2023-04-16T16:12:53;10.40;99.90
8953;DHT22;4511;50.890;8.054;2023-04-16T16:15:21;10.40;99.90